sensor_id;sensor_type;location;lat;lon;timestamp;pressure;altitude;pressure_sealevel;temperature;humidity
59063;BME280;44851;45.648;9.004;2022-07-24T00:02:21;98977.41;;;28.60;45.47
59063;BME280;44851;45.648;9.004;2022-07-24T00:04:46;98984.91;;;28.58;45.55
59063;BME280;44851;45.648;9.004;2022-07-24T00:07:12;98995.25;;;28.44;46.16
59063;BME280;44851;45.648;9.004;2022-07-24T00:09:37;98987.44;;;28.37;46.07
59063;BME280;44851;45.648;9.004;2022-07-24T00:12:03;98988.84;;;28.50;46.20
59063;BME280;44851;45.648;9.004;2022-07-24T00:14:29;98987.00;;;28.50;45.64
59063;BME280;44851;45.648;9.004;2022-07-24T00:16:54;98990.41;;;28.41;46.29
59063;BME280;44851;45.648;9.004;2022-07-24T00:19:20;98991.63;;;28.28;46.73
59063;BME280;44851;45.648;9.004;2022-07-24T00:21:45;98986.09;;;28.35;46.92
59063;BME280;44851;45.648;9.004;2022-07-24T00:24:10;98978.09;;;28.40;46.52
59063;BME280;44851;45.648;9.004;2022-07-24T00:26:36;98987.31;;;28.22;47.40
59063;BME280;44851;45.648;9.004;2022-07-24T00:29:02;98986.59;;;28.32;47.01
59063;BME280;44851;45.648;9.004;2022-07-24T00:31:27;98984.88;;;28.20;47.40
59063;BME280;44851;45.648;9.004;2022-07-24T00:33:52;98986.75;;;28.20;47.29
59063;BME280;44851;45.648;9.004;2022-07-24T00:36:18;98976.59;;;28.22;47.20
59063;BME280;44851;45.648;9.004;2022-07-24T00:38:43;98976.38;;;28.01;48.11
59063;BME280;44851;45.648;9.004;2022-07-24T00:41:09;98970.06;;;28.18;47.47
59063;BME280;44851;45.648;9.004;2022-07-24T00:43:34;98974.97;;;28.21;47.47
59063;BME280;44851;45.648;9.004;2022-07-24T00:46:00;98972.28;;;28.21;47.08
59063;BME280;44851;45.648;9.004;2022-07-24T00:48:25;98967.88;;;28.10;47.21
59063;BME280;44851;45.648;9.004;2022-07-24T00:50:51;98966.22;;;28.03;47.88
59063;BME280;44851;45.648;9.004;2022-07-24T00:53:16;98965.16;;;28.05;47.64
59063;BME280;44851;45.648;9.004;2022-07-24T00:55:42;98965.38;;;27.98;47.91
59063;BME280;44851;45.648;9.004;2022-07-24T00:58:08;98960.00;;;27.98;47.83
59063;BME280;44851;45.648;9.004;2022-07-24T01:00:33;98964.75;;;27.91;47.91
59063;BME280;44851;45.648;9.004;2022-07-24T01:02:59;98962.13;;;27.96;47.57
59063;BME280;44851;45.648;9.004;2022-07-24T01:05:25;98971.13;;;27.85;47.81
59063;BME280;44851;45.648;9.004;2022-07-24T01:07:50;98971.38;;;27.83;48.08
59063;BME280;44851;45.648;9.004;2022-07-24T01:10:16;98959.34;;;27.86;47.86
59063;BME280;44851;45.648;9.004;2022-07-24T01:12:41;98964.97;;;27.84;48.00
59063;BME280;44851;45.648;9.004;2022-07-24T01:15:09;98959.28;;;27.81;48.07
59063;BME280;44851;45.648;9.004;2022-07-24T01:17:38;98962.91;;;27.96;47.27
59063;BME280;44851;45.648;9.004;2022-07-24T01:20:05;98964.56;;;27.97;47.42
59063;BME280;44851;45.648;9.004;2022-07-24T01:22:31;98961.94;;;28.02;47.64
59063;BME280;44851;45.648;9.004;2022-07-24T01:24:56;98966.47;;;27.75;47.95
59063;BME280;44851;45.648;9.004;2022-07-24T01:27:23;98972.41;;;27.77;48.22
59063;BME280;44851;45.648;9.004;2022-07-24T01:29:49;98973.84;;;27.63;48.52
59063;BME280;44851;45.648;9.004;2022-07-24T01:32:14;98970.72;;;27.71;48.26
59063;BME280;44851;45.648;9.004;2022-07-24T01:34:40;98972.03;;;27.68;48.40
59063;BME280;44851;45.648;9.004;2022-07-24T01:37:05;98972.22;;;27.62;48.70
59063;BME280;44851;45.648;9.004;2022-07-24T01:39:30;98960.94;;;27.60;48.41
59063;BME280;44851;45.648;9.004;2022-07-24T01:41:56;98969.66;;;27.50;48.50
59063;BME280;44851;45.648;9.004;2022-07-24T01:44:21;98970.75;;;27.54;48.34
59063;BME280;44851;45.648;9.004;2022-07-24T01:46:47;98965.63;;;27.47;48.88
59063;BME280;44851;45.648;9.004;2022-07-24T01:49:12;98968.66;;;27.56;48.67
59063;BME280;44851;45.648;9.004;2022-07-24T01:51:37;98965.75;;;27.36;48.75
59063;BME280;44851;45.648;9.004;2022-07-24T01:54:03;98968.53;;;27.46;48.56
59063;BME280;44851;45.648;9.004;2022-07-24T01:56:30;98972.53;;;27.43;48.96
59063;BME280;44851;45.648;9.004;2022-07-24T01:58:56;98972.50;;;27.38;48.85
59063;BME280;44851;45.648;9.004;2022-07-24T02:01:21;98962.28;;;27.35;49.22
59063;BME280;44851;45.648;9.004;2022-07-24T02:03:46;98969.16;;;27.31;49.28
59063;BME280;44851;45.648;9.004;2022-07-24T02:06:12;98967.00;;;27.28;49.17
59063;BME280;44851;45.648;9.004;2022-07-24T02:08:37;98961.66;;;27.28;48.90
59063;BME280;44851;45.648;9.004;2022-07-24T02:11:03;98973.47;;;27.32;49.33
59063;BME280;44851;45.648;9.004;2022-07-24T02:13:29;98976.41;;;27.31;49.51
59063;BME280;44851;45.648;9.004;2022-07-24T02:15:54;98977.81;;;27.16;49.76
59063;BME280;44851;45.648;9.004;2022-07-24T02:18:19;98976.41;;;27.31;49.65
59063;BME280;44851;45.648;9.004;2022-07-24T02:20:45;98975.38;;;27.37;48.99
59063;BME280;44851;45.648;9.004;2022-07-24T02:23:10;98972.03;;;27.46;49.15
59063;BME280;44851;45.648;9.004;2022-07-24T02:25:36;98968.75;;;27.39;49.27
59063;BME280;44851;45.648;9.004;2022-07-24T02:28:01;98984.63;;;27.24;49.64
59063;BME280;44851;45.648;9.004;2022-07-24T02:30:26;98980.50;;;27.16;49.99
59063;BME280;44851;45.648;9.004;2022-07-24T02:32:52;98982.53;;;27.09;50.10
59063;BME280;44851;45.648;9.004;2022-07-24T02:35:17;98981.56;;;27.15;49.99
59063;BME280;44851;45.648;9.004;2022-07-24T02:37:44;98976.19;;;27.37;49.29
59063;BME280;44851;45.648;9.004;2022-07-24T02:40:12;98986.91;;;27.37;49.12
59063;BME280;44851;45.648;9.004;2022-07-24T02:42:38;98973.78;;;27.14;49.99
59063;BME280;44851;45.648;9.004;2022-07-24T02:45:05;98981.66;;;27.04;50.19
59063;BME280;44851;45.648;9.004;2022-07-24T02:47:31;98977.63;;;26.84;52.21
59063;BME280;44851;45.648;9.004;2022-07-24T02:49:56;98979.94;;;26.76;51.60
59063;BME280;44851;45.648;9.004;2022-07-24T02:52:22;98984.09;;;26.88;52.19
59063;BME280;44851;45.648;9.004;2022-07-24T02:54:47;98977.94;;;27.05;51.39
59063;BME280;44851;45.648;9.004;2022-07-24T02:57:13;98988.47;;;26.94;51.86
59063;BME280;44851;45.648;9.004;2022-07-24T02:59:38;98986.84;;;26.93;51.29
59063;BME280;44851;45.648;9.004;2022-07-24T03:02:03;98988.41;;;26.89;52.19
59063;BME280;44851;45.648;9.004;2022-07-24T03:04:29;98988.03;;;26.81;51.50
59063;BME280;44851;45.648;9.004;2022-07-24T03:06:54;98979.75;;;26.82;51.62
59063;BME280;44851;45.648;9.004;2022-07-24T03:09:20;98983.78;;;26.85;52.16
59063;BME280;44851;45.648;9.004;2022-07-24T03:11:45;98991.06;;;26.89;51.39
59063;BME280;44851;45.648;9.004;2022-07-24T03:14:10;98988.97;;;26.91;51.82
59063;BME280;44851;45.648;9.004;2022-07-24T03:16:36;98984.09;;;26.88;51.96
59063;BME280;44851;45.648;9.004;2022-07-24T03:19:02;98985.56;;;26.79;51.71
59063;BME280;44851;45.648;9.004;2022-07-24T03:21:28;98980.41;;;26.72;52.48
59063;BME280;44851;45.648;9.004;2022-07-24T03:23:53;98996.78;;;26.76;52.28
59063;BME280;44851;45.648;9.004;2022-07-24T03:26:18;98992.88;;;26.84;51.84
59063;BME280;44851;45.648;9.004;2022-07-24T03:28:44;98992.56;;;26.80;51.96
59063;BME280;44851;45.648;9.004;2022-07-24T03:31:09;98999.81;;;26.85;52.50
59063;BME280;44851;45.648;9.004;2022-07-24T03:33:34;99000.66;;;26.85;51.61
59063;BME280;44851;45.648;9.004;2022-07-24T03:36:00;99006.97;;;26.96;51.78
59063;BME280;44851;45.648;9.004;2022-07-24T03:38:25;99006.97;;;26.79;51.96
59063;BME280;44851;45.648;9.004;2022-07-24T03:40:51;99014.91;;;26.74;51.74
59063;BME280;44851;45.648;9.004;2022-07-24T03:43:17;99009.09;;;26.77;52.28
59063;BME280;44851;45.648;9.004;2022-07-24T03:45:42;99009.56;;;26.74;51.74
59063;BME280;44851;45.648;9.004;2022-07-24T03:48:08;99013.81;;;26.70;52.06
59063;BME280;44851;45.648;9.004;2022-07-24T03:50:34;99013.47;;;26.66;51.51
59063;BME280;44851;45.648;9.004;2022-07-24T03:53:00;99020.34;;;26.62;52.43
59063;BME280;44851;45.648;9.004;2022-07-24T03:55:25;99021.91;;;26.75;52.33
59063;BME280;44851;45.648;9.004;2022-07-24T03:57:50;99019.47;;;26.57;52.15
59063;BME280;44851;45.648;9.004;2022-07-24T04:00:16;99027.09;;;26.65;52.71
59063;BME280;44851;45.648;9.004;2022-07-24T04:02:41;99027.25;;;26.75;51.99
59063;BME280;44851;45.648;9.004;2022-07-24T04:05:08;99028.78;;;26.71;51.95
59063;BME280;44851;45.648;9.004;2022-07-24T04:07:37;99024.41;;;26.82;51.44
59063;BME280;44851;45.648;9.004;2022-07-24T04:10:03;99027.56;;;26.79;52.08
59063;BME280;44851;45.648;9.004;2022-07-24T04:12:29;99027.72;;;26.72;52.48
59063;BME280;44851;45.648;9.004;2022-07-24T04:14:54;99036.19;;;26.64;52.41
59063;BME280;44851;45.648;9.004;2022-07-24T04:17:20;99038.25;;;26.62;51.89
59063;BME280;44851;45.648;9.004;2022-07-24T04:19:45;99040.53;;;26.70;51.74
59063;BME280;44851;45.648;9.004;2022-07-24T04:22:10;99041.34;;;26.70;52.25
59063;BME280;44851;45.648;9.004;2022-07-24T04:24:36;99043.78;;;26.72;52.43
59063;BME280;44851;45.648;9.004;2022-07-24T04:27:01;99044.75;;;26.66;52.33
59063;BME280;44851;45.648;9.004;2022-07-24T04:29:27;99044.75;;;26.66;51.89
59063;BME280;44851;45.648;9.004;2022-07-24T04:31:52;99045.97;;;26.75;51.69
59063;BME280;44851;45.648;9.004;2022-07-24T04:34:17;99047.69;;;26.64;52.71
59063;BME280;44851;45.648;9.004;2022-07-24T04:36:43;99044.75;;;26.66;53.06
59063;BME280;44851;45.648;9.004;2022-07-24T04:39:08;99047.69;;;26.64;52.63
59063;BME280;44851;45.648;9.004;2022-07-24T04:41:34;99047.81;;;26.58;52.56
59063;BME280;44851;45.648;9.004;2022-07-24T04:43:59;99054.13;;;26.68;52.26
59063;BME280;44851;45.648;9.004;2022-07-24T04:46:24;99064.19;;;26.78;51.57
59063;BME280;44851;45.648;9.004;2022-07-24T04:48:50;99056.25;;;26.83;51.70
59063;BME280;44851;45.648;9.004;2022-07-24T04:51:15;99058.00;;;26.94;51.87
59063;BME280;44851;45.648;9.004;2022-07-24T04:53:41;99058.81;;;26.95;51.46
59063;BME280;44851;45.648;9.004;2022-07-24T04:56:06;99058.69;;;27.02;51.39
59063;BME280;44851;45.648;9.004;2022-07-24T04:58:32;99055.78;;;27.03;52.02
59063;BME280;44851;45.648;9.004;2022-07-24T05:00:57;99058.28;;;27.10;51.74
59063;BME280;44851;45.648;9.004;2022-07-24T05:03:23;99066.63;;;27.13;51.69
59063;BME280;44851;45.648;9.004;2022-07-24T05:05:48;99062.63;;;27.16;51.83
59063;BME280;44851;45.648;9.004;2022-07-24T05:08:14;99064.22;;;27.12;50.87
59063;BME280;44851;45.648;9.004;2022-07-24T05:10:39;99072.78;;;27.14;51.23
59063;BME280;44851;45.648;9.004;2022-07-24T05:13:04;99068.50;;;27.13;51.53
59063;BME280;44851;45.648;9.004;2022-07-24T05:15:30;99066.31;;;27.10;51.93
59063;BME280;44851;45.648;9.004;2022-07-24T05:17:55;99075.88;;;27.06;51.65
59063;BME280;44851;45.648;9.004;2022-07-24T05:20:21;99074.25;;;27.05;51.28
59063;BME280;44851;45.648;9.004;2022-07-24T05:22:46;99074.25;;;27.05;51.83
59063;BME280;44851;45.648;9.004;2022-07-24T05:25:11;99081.22;;;27.06;51.46
59063;BME280;44851;45.648;9.004;2022-07-24T05:27:37;99080.06;;;27.02;52.26
59063;BME280;44851;45.648;9.004;2022-07-24T05:30:04;99083.34;;;27.04;52.72
59063;BME280;44851;45.648;9.004;2022-07-24T05:32:30;99075.19;;;26.98;52.76
59063;BME280;44851;45.648;9.004;2022-07-24T05:34:55;99081.69;;;27.03;52.11
59063;BME280;44851;45.648;9.004;2022-07-24T05:37:21;99082.75;;;27.02;52.53
59063;BME280;44851;45.648;9.004;2022-07-24T05:39:46;99086.25;;;27.02;52.34
59063;BME280;44851;45.648;9.004;2022-07-24T05:42:11;99092.41;;;27.03;53.17
59063;BME280;44851;45.648;9.004;2022-07-24T05:44:37;99097.03;;;27.07;53.13
59063;BME280;44851;45.648;9.004;2022-07-24T05:47:02;99101.88;;;26.93;53.71
59063;BME280;44851;45.648;9.004;2022-07-24T05:49:28;99098.94;;;26.95;53.85
59063;BME280;44851;45.648;9.004;2022-07-24T05:51:53;99098.38;;;26.93;54.40
59063;BME280;44851;45.648;9.004;2022-07-24T05:54:19;99097.59;;;26.92;54.39
59063;BME280;44851;45.648;9.004;2022-07-24T05:56:44;99099.38;;;27.04;54.40
59063;BME280;44851;45.648;9.004;2022-07-24T05:59:09;99105.16;;;27.12;54.19
59063;BME280;44851;45.648;9.004;2022-07-24T06:01:35;99106.41;;;26.93;54.93
59063;BME280;44851;45.648;9.004;2022-07-24T06:04:00;99114.72;;;27.08;54.77
59063;BME280;44851;45.648;9.004;2022-07-24T06:06:27;99112.41;;;27.17;54.72
59063;BME280;44851;45.648;9.004;2022-07-24T06:08:52;99115.16;;;27.22;54.51
59063;BME280;44851;45.648;9.004;2022-07-24T06:11:18;99114.28;;;27.16;55.16
59063;BME280;44851;45.648;9.004;2022-07-24T06:13:43;99116.41;;;27.14;54.69
59063;BME280;44851;45.648;9.004;2022-07-24T06:16:09;99116.31;;;27.26;54.97
59063;BME280;44851;45.648;9.004;2022-07-24T06:18:34;99120.59;;;27.27;55.05
59063;BME280;44851;45.648;9.004;2022-07-24T06:21:00;99122.88;;;27.35;55.20
59063;BME280;44851;45.648;9.004;2022-07-24T06:23:25;99120.44;;;27.34;55.27
59063;BME280;44851;45.648;9.004;2022-07-24T06:25:51;99119.75;;;27.43;55.35
59063;BME280;44851;45.648;9.004;2022-07-24T06:28:16;99122.03;;;27.51;55.37
59063;BME280;44851;45.648;9.004;2022-07-24T06:30:41;99115.19;;;27.61;54.86
59063;BME280;44851;45.648;9.004;2022-07-24T06:33:07;99120.53;;;27.61;55.52
59063;BME280;44851;45.648;9.004;2022-07-24T06:35:32;99132.38;;;27.65;55.07
59063;BME280;44851;45.648;9.004;2022-07-24T06:37:59;99134.03;;;27.66;54.72
59063;BME280;44851;45.648;9.004;2022-07-24T06:40:27;99125.41;;;27.64;55.99
59063;BME280;44851;45.648;9.004;2022-07-24T06:42:53;99130.09;;;27.73;55.19
59063;BME280;44851;45.648;9.004;2022-07-24T06:45:18;99135.41;;;27.68;55.22
59063;BME280;44851;45.648;9.004;2022-07-24T06:47:44;99130.72;;;27.81;55.15
59063;BME280;44851;45.648;9.004;2022-07-24T06:50:11;99137.72;;;27.82;55.64
59063;BME280;44851;45.648;9.004;2022-07-24T06:52:37;99138.00;;;27.85;55.09
59063;BME280;44851;45.648;9.004;2022-07-24T06:55:03;99140.47;;;27.87;55.34
59063;BME280;44851;45.648;9.004;2022-07-24T06:57:28;99138.28;;;27.84;55.03
59063;BME280;44851;45.648;9.004;2022-07-24T06:59:54;99138.66;;;27.70;55.33
59063;BME280;44851;45.648;9.004;2022-07-24T07:02:20;99137.88;;;27.75;55.02
59063;BME280;44851;45.648;9.004;2022-07-24T07:04:47;99138.06;;;27.90;54.51
59063;BME280;44851;45.648;9.004;2022-07-24T07:07:12;99141.06;;;27.94;54.99
59063;BME280;44851;45.648;9.004;2022-07-24T07:09:39;99135.34;;;27.85;55.74
59063;BME280;44851;45.648;9.004;2022-07-24T07:12:04;99134.56;;;28.12;54.97
59063;BME280;44851;45.648;9.004;2022-07-24T07:14:30;99137.19;;;28.50;53.58
59063;BME280;44851;45.648;9.004;2022-07-24T07:16:55;99140.56;;;28.68;53.30
59063;BME280;44851;45.648;9.004;2022-07-24T07:19:20;99139.69;;;28.62;53.29
59063;BME280;44851;45.648;9.004;2022-07-24T07:21:46;99137.28;;;28.66;53.48
59063;BME280;44851;45.648;9.004;2022-07-24T07:24:11;99142.06;;;28.59;53.53
59063;BME280;44851;45.648;9.004;2022-07-24T07:26:37;99136.09;;;28.51;53.68
59063;BME280;44851;45.648;9.004;2022-07-24T07:29:02;99140.81;;;28.66;53.38
59063;BME280;44851;45.648;9.004;2022-07-24T07:31:27;99136.31;;;28.72;53.24
59063;BME280;44851;45.648;9.004;2022-07-24T07:33:53;99139.66;;;28.84;53.05
59063;BME280;44851;45.648;9.004;2022-07-24T07:36:18;99133.47;;;28.84;52.42
59063;BME280;44851;45.648;9.004;2022-07-24T07:38:44;99136.59;;;29.08;52.94
59063;BME280;44851;45.648;9.004;2022-07-24T07:41:09;99132.91;;;29.19;52.25
59063;BME280;44851;45.648;9.004;2022-07-24T07:43:35;99131.50;;;29.06;51.86
59063;BME280;44851;45.648;9.004;2022-07-24T07:46:01;99135.03;;;29.12;52.19
59063;BME280;44851;45.648;9.004;2022-07-24T07:48:26;99132.69;;;29.20;51.68
59063;BME280;44851;45.648;9.004;2022-07-24T07:50:53;99134.00;;;29.18;51.92
59063;BME280;44851;45.648;9.004;2022-07-24T07:53:18;99130.81;;;29.21;51.50
59063;BME280;44851;45.648;9.004;2022-07-24T07:55:44;99132.06;;;29.13;51.34
59063;BME280;44851;45.648;9.004;2022-07-24T07:58:13;99132.53;;;29.00;51.86
59063;BME280;44851;45.648;9.004;2022-07-24T08:00:39;99137.63;;;29.01;52.23
59063;BME280;44851;45.648;9.004;2022-07-24T08:03:04;99138.41;;;28.97;51.90
59063;BME280;44851;45.648;9.004;2022-07-24T08:05:30;99143.53;;;29.30;51.71
59063;BME280;44851;45.648;9.004;2022-07-24T08:07:55;99145.31;;;29.20;51.51
59063;BME280;44851;45.648;9.004;2022-07-24T08:10:21;99144.69;;;29.13;52.20
59063;BME280;44851;45.648;9.004;2022-07-24T08:12:46;99138.97;;;29.31;51.47
59063;BME280;44851;45.648;9.004;2022-07-24T08:15:11;99153.56;;;29.50;50.40
59063;BME280;44851;45.648;9.004;2022-07-24T08:17:37;99149.47;;;29.85;49.81
59063;BME280;44851;45.648;9.004;2022-07-24T08:20:03;99155.09;;;29.83;49.80
59063;BME280;44851;45.648;9.004;2022-07-24T08:22:29;99151.66;;;29.93;49.44
59063;BME280;44851;45.648;9.004;2022-07-24T08:24:54;99147.13;;;30.09;49.13
59063;BME280;44851;45.648;9.004;2022-07-24T08:27:19;99155.59;;;30.43;48.78
59063;BME280;44851;45.648;9.004;2022-07-24T08:29:45;99153.41;;;30.35;48.10
59063;BME280;44851;45.648;9.004;2022-07-24T08:32:10;99142.59;;;30.15;49.08
59063;BME280;44851;45.648;9.004;2022-07-24T08:34:36;99153.28;;;30.04;48.81
59063;BME280;44851;45.648;9.004;2022-07-24T08:37:01;99155.44;;;30.02;49.39
59063;BME280;44851;45.648;9.004;2022-07-24T08:39:27;99146.00;;;29.90;49.94
59063;BME280;44851;45.648;9.004;2022-07-24T08:41:52;99146.06;;;29.52;51.27
59063;BME280;44851;45.648;9.004;2022-07-24T08:44:18;99148.16;;;29.93;49.63
59063;BME280;44851;45.648;9.004;2022-07-24T08:46:43;99148.75;;;30.05;49.13
59063;BME280;44851;45.648;9.004;2022-07-24T08:49:13;99153.84;;;30.01;48.77
59063;BME280;44851;45.648;9.004;2022-07-24T08:51:40;99148.94;;;29.88;48.95
59063;BME280;44851;45.648;9.004;2022-07-24T08:54:06;99152.22;;;29.95;49.57
59063;BME280;44851;45.648;9.004;2022-07-24T08:56:32;99153.34;;;30.15;48.90
59063;BME280;44851;45.648;9.004;2022-07-24T08:59:02;99155.50;;;30.13;49.17
59063;BME280;44851;45.648;9.004;2022-07-24T09:01:28;99162.53;;;30.29;48.64
59063;BME280;44851;45.648;9.004;2022-07-24T09:03:53;99164.34;;;30.08;48.41
59063;BME280;44851;45.648;9.004;2022-07-24T09:06:19;99163.84;;;30.16;48.66
59063;BME280;44851;45.648;9.004;2022-07-24T09:09:01;99163.03;;;30.16;48.68
59063;BME280;44851;45.648;9.004;2022-07-24T09:11:28;99161.44;;;30.30;48.38
59063;BME280;44851;45.648;9.004;2022-07-24T09:14:00;99164.47;;;30.39;48.58
59063;BME280;44851;45.648;9.004;2022-07-24T09:16:45;99167.47;;;30.47;48.08
59063;BME280;44851;45.648;9.004;2022-07-24T09:19:12;99164.81;;;30.98;48.34
59063;BME280;44851;45.648;9.004;2022-07-24T09:21:40;99160.47;;;30.67;47.08
59063;BME280;44851;45.648;9.004;2022-07-24T09:24:32;99166.41;;;30.89;46.93
59063;BME280;44851;45.648;9.004;2022-07-24T09:26:57;99163.22;;;31.23;45.64
59063;BME280;44851;45.648;9.004;2022-07-24T09:29:24;99162.59;;;31.67;46.40
59063;BME280;44851;45.648;9.004;2022-07-24T09:31:51;99165.31;;;31.41;44.93
59063;BME280;44851;45.648;9.004;2022-07-24T09:34:16;99161.84;;;31.46;44.24
59063;BME280;44851;45.648;9.004;2022-07-24T09:36:54;99163.69;;;31.66;45.21
59063;BME280;44851;45.648;9.004;2022-07-24T09:39:20;99169.13;;;31.20;45.47
59063;BME280;44851;45.648;9.004;2022-07-24T09:41:51;99159.91;;;31.61;44.08
59063;BME280;44851;45.648;9.004;2022-07-24T09:44:17;99168.72;;;31.87;44.28
59063;BME280;44851;45.648;9.004;2022-07-24T09:46:46;99157.72;;;31.69;43.62
59063;BME280;44851;45.648;9.004;2022-07-24T09:49:18;99159.41;;;31.49;44.12
59063;BME280;44851;45.648;9.004;2022-07-24T09:52:09;99161.53;;;31.62;44.03
59063;BME280;44851;45.648;9.004;2022-07-24T09:57:23;99161.41;;;32.03;44.10
59063;BME280;44851;45.648;9.004;2022-07-24T10:02:16;99159.56;;;32.43;42.96
59063;BME280;44851;45.648;9.004;2022-07-24T10:04:43;99155.19;;;32.57;42.15
59063;BME280;44851;45.648;9.004;2022-07-24T10:07:11;99145.38;;;32.72;42.02
59063;BME280;44851;45.648;9.004;2022-07-24T10:09:42;99151.69;;;32.91;42.78
59063;BME280;44851;45.648;9.004;2022-07-24T10:12:13;99154.59;;;33.05;40.73
59063;BME280;44851;45.648;9.004;2022-07-24T10:14:40;99149.84;;;33.21;40.71
59063;BME280;44851;45.648;9.004;2022-07-24T10:17:08;99151.50;;;33.16;40.21
59063;BME280;44851;45.648;9.004;2022-07-24T10:19:42;99152.91;;;33.38;39.98
59063;BME280;44851;45.648;9.004;2022-07-24T10:22:14;99140.97;;;33.44;39.62
59063;BME280;44851;45.648;9.004;2022-07-24T10:24:56;99139.53;;;33.76;39.35
59063;BME280;44851;45.648;9.004;2022-07-24T10:27:54;99139.38;;;33.67;39.31
59063;BME280;44851;45.648;9.004;2022-07-24T10:30:12;99137.63;;;33.76;37.80
59063;BME280;44851;45.648;9.004;2022-07-24T10:32:38;99134.00;;;34.10;37.51
59063;BME280;44851;45.648;9.004;2022-07-24T10:35:08;99125.00;;;34.14;37.13
59063;BME280;44851;45.648;9.004;2022-07-24T10:45:30;99124.34;;;34.22;37.58
59063;BME280;44851;45.648;9.004;2022-07-24T10:47:56;99124.91;;;34.19;36.47
59063;BME280;44851;45.648;9.004;2022-07-24T10:50:22;99119.75;;;34.04;36.76
59063;BME280;44851;45.648;9.004;2022-07-24T10:52:48;99108.97;;;33.56;37.37
59063;BME280;44851;45.648;9.004;2022-07-24T10:55:33;99107.81;;;33.62;39.53
59063;BME280;44851;45.648;9.004;2022-07-24T10:58:03;99105.25;;;34.14;37.77
59063;BME280;44851;45.648;9.004;2022-07-24T11:00:37;99097.50;;;34.07;37.73
59063;BME280;44851;45.648;9.004;2022-07-24T11:03:19;99095.81;;;33.92;36.48
59063;BME280;44851;45.648;9.004;2022-07-24T11:06:03;99099.97;;;34.04;36.61
59063;BME280;44851;45.648;9.004;2022-07-24T11:08:29;99094.94;;;33.97;38.92
59063;BME280;44851;45.648;9.004;2022-07-24T11:11:05;99093.47;;;34.23;36.88
59063;BME280;44851;45.648;9.004;2022-07-24T11:18:37;99087.69;;;34.30;36.21
59063;BME280;44851;45.648;9.004;2022-07-24T11:21:03;99086.47;;;34.22;37.31
59063;BME280;44851;45.648;9.004;2022-07-24T11:23:29;99081.19;;;34.12;36.53
59063;BME280;44851;45.648;9.004;2022-07-24T11:29:17;99074.69;;;34.13;35.53
59063;BME280;44851;45.648;9.004;2022-07-24T11:31:48;99081.34;;;34.40;35.85
59063;BME280;44851;45.648;9.004;2022-07-24T11:34:14;99074.00;;;34.59;35.79
59063;BME280;44851;45.648;9.004;2022-07-24T11:36:41;99063.31;;;34.82;35.30
59063;BME280;44851;45.648;9.004;2022-07-24T11:39:08;99057.66;;;34.97;35.56
59063;BME280;44851;45.648;9.004;2022-07-24T11:44:09;99061.91;;;34.00;35.47
59063;BME280;44851;45.648;9.004;2022-07-24T11:46:36;99061.31;;;34.41;36.09
59063;BME280;44851;45.648;9.004;2022-07-24T11:49:07;99059.19;;;34.70;35.17
59063;BME280;44851;45.648;9.004;2022-07-24T11:51:47;99055.47;;;35.13;35.24
59063;BME280;44851;45.648;9.004;2022-07-24T11:54:28;99049.38;;;35.35;34.48
59063;BME280;44851;45.648;9.004;2022-07-24T11:56:55;99052.38;;;35.47;33.81
59063;BME280;44851;45.648;9.004;2022-07-24T11:59:25;99048.44;;;35.25;33.44
59063;BME280;44851;45.648;9.004;2022-07-24T12:02:05;99045.16;;;35.42;33.61
59063;BME280;44851;45.648;9.004;2022-07-24T12:04:31;99041.63;;;35.42;34.45
59063;BME280;44851;45.648;9.004;2022-07-24T12:06:56;99025.25;;;35.61;33.75
59063;BME280;44851;45.648;9.004;2022-07-24T12:09:22;99031.31;;;35.94;33.34
59063;BME280;44851;45.648;9.004;2022-07-24T12:11:47;99017.88;;;35.89;32.21
59063;BME280;44851;45.648;9.004;2022-07-24T12:14:17;99026.88;;;35.98;32.51
59063;BME280;44851;45.648;9.004;2022-07-24T12:16:44;99018.88;;;35.93;32.77
59063;BME280;44851;45.648;9.004;2022-07-24T12:19:17;99023.81;;;36.13;31.94
59063;BME280;44851;45.648;9.004;2022-07-24T12:21:44;99021.31;;;35.67;32.58
59063;BME280;44851;45.648;9.004;2022-07-24T12:24:11;99007.28;;;35.51;32.74
59063;BME280;44851;45.648;9.004;2022-07-24T12:26:49;99012.31;;;36.16;32.69
59063;BME280;44851;45.648;9.004;2022-07-24T12:29:15;99006.44;;;36.37;31.16
59063;BME280;44851;45.648;9.004;2022-07-24T12:31:41;99009.66;;;36.39;31.22
59063;BME280;44851;45.648;9.004;2022-07-24T12:34:06;99007.06;;;36.34;31.27
59063;BME280;44851;45.648;9.004;2022-07-24T12:36:32;98998.88;;;36.11;32.74
59063;BME280;44851;45.648;9.004;2022-07-24T12:38:57;98997.22;;;35.65;31.75
59063;BME280;44851;45.648;9.004;2022-07-24T12:41:25;98992.94;;;35.37;33.72
59063;BME280;44851;45.648;9.004;2022-07-24T12:44:02;98991.63;;;35.48;32.73
59063;BME280;44851;45.648;9.004;2022-07-24T12:46:38;98989.56;;;35.67;31.49
59063;BME280;44851;45.648;9.004;2022-07-24T12:49:06;98979.59;;;35.54;32.15
59063;BME280;44851;45.648;9.004;2022-07-24T12:51:51;98982.41;;;35.21;32.62
59063;BME280;44851;45.648;9.004;2022-07-24T12:54:19;98975.50;;;34.88;34.10
59063;BME280;44851;45.648;9.004;2022-07-24T12:56:46;98974.81;;;34.96;34.12
59063;BME280;44851;45.648;9.004;2022-07-24T12:59:42;98978.72;;;35.67;33.51
59063;BME280;44851;45.648;9.004;2022-07-24T13:02:15;98976.22;;;36.07;33.62
59063;BME280;44851;45.648;9.004;2022-07-24T13:04:48;98980.97;;;35.65;33.63
59063;BME280;44851;45.648;9.004;2022-07-24T13:07:16;98968.47;;;35.28;33.10
59063;BME280;44851;45.648;9.004;2022-07-24T13:09:42;98971.44;;;35.54;32.02
59063;BME280;44851;45.648;9.004;2022-07-24T13:12:08;98966.69;;;35.96;31.62
59063;BME280;44851;45.648;9.004;2022-07-24T13:14:34;98954.66;;;36.11;32.82
59063;BME280;44851;45.648;9.004;2022-07-24T13:17:05;98954.97;;;35.50;31.60
59063;BME280;44851;45.648;9.004;2022-07-24T13:19:33;98960.09;;;35.52;31.75
59063;BME280;44851;45.648;9.004;2022-07-24T13:21:59;98951.38;;;35.77;31.70
59063;BME280;44851;45.648;9.004;2022-07-24T13:24:24;98941.91;;;36.11;31.12